createdAt,value
2023-05-20T00:00:02.246Z,17.40
2023-05-20T00:02:34.245Z,17.42
2023-05-20T00:05:02.178Z,17.48
2023-05-20T00:07:30.332Z,17.43
2023-05-20T00:09:57.957Z,17.48
2023-05-20T00:12:25.558Z,17.45
2023-05-20T00:14:53.957Z,17.29
2023-05-20T00:17:23.386Z,17.40
2023-05-20T00:19:51.527Z,17.36
2023-05-20T00:22:19.012Z,17.41
2023-05-20T00:24:47.151Z,17.48
2023-05-20T00:27:15.275Z,17.44
2023-05-20T00:29:43.376Z,17.52
2023-05-20T00:32:11.446Z,17.38
2023-05-20T00:34:39.214Z,17.45
2023-05-20T00:37:07.296Z,17.46
2023-05-20T00:39:34.882Z,17.63
2023-05-20T00:42:03.556Z,17.70
2023-05-20T00:44:31.187Z,17.77
2023-05-20T00:46:58.810Z,17.70
2023-05-20T00:49:26.545Z,17.59
2023-05-20T00:51:54.818Z,17.66
2023-05-20T00:54:22.645Z,17.68
2023-05-20T00:56:51.100Z,17.61
2023-05-20T00:59:19.000Z,17.66
2023-05-20T01:01:47.236Z,17.70
2023-05-20T01:04:15.760Z,17.77
2023-05-20T01:06:46.293Z,17.62
2023-05-20T01:09:14.020Z,17.72
2023-05-20T01:12:16.881Z,17.70
2023-05-20T01:14:50.080Z,17.78
2023-05-20T01:17:20.988Z,17.78
2023-05-20T01:19:49.592Z,17.73
2023-05-20T01:22:17.246Z,17.78
2023-05-20T01:24:53.531Z,17.59
2023-05-20T01:27:22.710Z,17.50
2023-05-20T01:29:51.946Z,17.45
2023-05-20T01:32:25.333Z,17.66
2023-05-20T01:34:53.917Z,17.67
2023-05-20T01:37:23.294Z,17.74
2023-05-20T01:39:52.446Z,17.72
2023-05-20T01:42:21.132Z,17.71
2023-05-20T01:44:50.139Z,17.75
2023-05-20T01:47:18.257Z,17.76
2023-05-20T01:49:46.446Z,17.63
2023-05-20T01:52:14.182Z,17.48
2023-05-20T01:54:42.199Z,17.43
2023-05-20T01:57:10.975Z,17.45
2023-05-20T01:59:39.804Z,17.43
2023-05-20T02:02:07.982Z,17.56
2023-05-20T02:04:36.310Z,17.43
2023-05-20T02:07:04.535Z,17.48
2023-05-20T02:09:32.073Z,17.41
2023-05-20T02:11:59.719Z,17.48
2023-05-20T02:14:27.621Z,17.51
2023-05-20T02:16:56.427Z,17.52
2023-05-20T02:19:24.265Z,17.66
2023-05-20T02:21:51.824Z,17.56
2023-05-20T02:24:21.289Z,17.51
2023-05-20T02:26:51.237Z,17.59
2023-05-20T02:29:22.129Z,17.64
2023-05-20T02:31:50.779Z,17.52
2023-05-20T02:34:19.179Z,17.65
2023-05-20T02:36:46.818Z,17.61
2023-05-20T02:39:14.509Z,17.58
2023-05-20T02:41:42.467Z,17.58
2023-05-20T02:44:10.947Z,17.60
2023-05-20T02:46:38.978Z,17.72
2023-05-20T02:49:06.596Z,17.68
2023-05-20T02:51:34.181Z,17.81
2023-05-20T02:54:02.284Z,17.78
2023-05-20T02:56:30.138Z,17.94
2023-05-20T02:58:57.700Z,17.77
2023-05-20T03:01:25.804Z,17.92
2023-05-20T03:03:53.911Z,18.02
2023-05-20T03:06:21.561Z,17.85
2023-05-20T03:08:51.404Z,17.87
2023-05-20T03:11:19.407Z,17.75
2023-05-20T03:13:47.536Z,17.71
2023-05-20T03:16:18.583Z,17.67
2023-05-20T03:18:46.588Z,17.74
2023-05-20T03:21:14.969Z,17.76
2023-05-20T03:23:42.967Z,17.56
2023-05-20T03:26:10.520Z,17.55
2023-05-20T03:28:38.118Z,17.43
2023-05-20T03:31:06.631Z,17.52
2023-05-20T03:33:36.072Z,17.52
2023-05-20T03:36:05.093Z,17.50
2023-05-20T03:38:33.272Z,17.58
2023-05-20T03:41:01.466Z,17.56
2023-05-20T03:43:29.027Z,17.46
2023-05-20T03:45:57.162Z,17.45
2023-05-20T03:48:24.878Z,17.51
2023-05-20T03:50:53.351Z,17.33
2023-05-20T03:53:21.232Z,17.07
2023-05-20T03:55:48.885Z,17.06
2023-05-20T03:58:16.774Z,17.25
2023-05-20T04:00:44.759Z,17.42
2023-05-20T04:03:13.000Z,17.28
2023-05-20T04:05:40.642Z,17.38
2023-05-20T04:08:16.150Z,17.40
2023-05-20T04:10:44.586Z,17.52
2023-05-20T04:13:13.567Z,17.19
2023-05-20T04:15:42.441Z,17.40
2023-05-20T04:18:13.268Z,17.50
2023-05-20T04:20:41.706Z,17.51
2023-05-20T04:23:10.831Z,17.34
2023-05-20T04:25:39.330Z,17.34
2023-05-20T04:28:10.813Z,17.50
2023-05-20T04:30:38.841Z,17.37
2023-05-20T04:33:06.915Z,17.53
2023-05-20T04:35:37.647Z,17.50
2023-05-20T04:38:07.673Z,17.44
2023-05-20T04:40:35.632Z,17.47
2023-05-20T04:43:04.087Z,17.49
2023-05-20T04:45:34.240Z,17.66
2023-05-20T04:48:02.197Z,17.64
2023-05-20T04:50:29.798Z,17.63
2023-05-20T04:52:57.758Z,17.76
2023-05-20T04:55:26.010Z,17.64
2023-05-20T04:57:54.241Z,17.67
2023-05-20T05:00:21.811Z,17.87
2023-05-20T05:02:49.927Z,17.76
2023-05-20T05:05:17.964Z,18.02
2023-05-20T05:07:45.922Z,18.16
2023-05-20T05:10:14.020Z,18.27
2023-05-20T05:12:42.063Z,18.30
2023-05-20T05:15:11.087Z,18.45
2023-05-20T05:17:38.876Z,18.55
2023-05-20T05:20:08.918Z,18.70
2023-05-20T05:22:37.190Z,18.79
2023-05-20T05:25:05.358Z,18.95
2023-05-20T05:27:33.032Z,18.82
2023-05-20T05:30:03.067Z,18.84
2023-05-20T05:32:32.199Z,18.86
2023-05-20T05:35:00.153Z,18.75
2023-05-20T05:37:29.639Z,18.82
2023-05-20T05:39:57.284Z,19.06
2023-05-20T05:42:25.487Z,19.04
2023-05-20T05:44:53.572Z,19.25
2023-05-20T05:47:21.805Z,19.37
2023-05-20T05:49:49.633Z,18.96
2023-05-20T05:52:17.186Z,18.73
2023-05-20T05:54:44.754Z,18.75
2023-05-20T05:57:13.181Z,19.35
2023-05-20T05:59:41.563Z,19.66
2023-05-20T06:02:10.925Z,19.43
2023-05-20T06:04:39.021Z,19.86
2023-05-20T06:07:07.157Z,19.79
2023-05-20T06:09:35.302Z,19.30
2023-05-20T06:12:03.746Z,18.97
2023-05-20T06:14:32.626Z,19.31
2023-05-20T06:17:01.128Z,18.91
2023-05-20T06:19:29.620Z,18.89
2023-05-20T06:21:58.789Z,18.77
2023-05-20T06:24:26.853Z,18.86
2023-05-20T06:26:55.156Z,18.85
2023-05-20T06:29:23.771Z,18.74
2023-05-20T06:31:51.783Z,18.34
2023-05-20T06:34:19.416Z,18.44
2023-05-20T06:36:47.110Z,18.57
2023-05-20T06:39:16.368Z,18.59
2023-05-20T06:41:45.942Z,18.82
2023-05-20T06:44:20.418Z,19.01
2023-05-20T06:47:18.429Z,19.24
2023-05-20T06:49:48.596Z,19.16
2023-05-20T06:52:17.620Z,19.18
2023-05-20T06:54:46.168Z,19.06
2023-05-20T06:57:15.167Z,19.13
2023-05-20T06:59:42.729Z,19.21
2023-05-20T07:02:11.713Z,19.21
2023-05-20T07:04:39.366Z,19.29
2023-05-20T07:07:06.982Z,19.53
2023-05-20T07:09:34.626Z,19.63
2023-05-20T07:12:02.360Z,19.64
2023-05-20T07:14:30.832Z,19.66
2023-05-20T07:16:58.392Z,19.61
2023-05-20T07:19:26.068Z,19.71
2023-05-20T07:21:54.388Z,19.59
2023-05-20T07:24:40.853Z,19.33
2023-05-20T07:27:09.537Z,19.56
2023-05-20T07:29:37.533Z,19.71
2023-05-20T07:32:06.064Z,19.79
2023-05-20T07:34:35.607Z,19.83
2023-05-20T07:37:04.270Z,19.94
2023-05-20T07:39:32.791Z,19.87
2023-05-20T07:42:00.397Z,19.89
2023-05-20T07:44:28.059Z,19.81
2023-05-20T07:46:56.729Z,19.45
2023-05-20T07:49:24.775Z,19.37
2023-05-20T07:51:52.550Z,19.27
2023-05-20T07:54:20.783Z,19.50
2023-05-20T07:56:51.586Z,19.55
2023-05-20T07:59:19.907Z,19.48
2023-05-20T08:01:49.579Z,19.60
2023-05-20T08:04:19.941Z,19.92
2023-05-20T08:06:47.548Z,19.95
2023-05-20T08:09:22.614Z,19.83
2023-05-20T08:11:54.219Z,19.67
2023-05-20T08:14:21.855Z,19.77
2023-05-20T08:16:55.012Z,19.63
2023-05-20T08:19:23.269Z,19.65
2023-05-20T08:21:51.063Z,19.67
2023-05-20T08:24:19.078Z,19.61
2023-05-20T08:26:47.120Z,19.43
2023-05-20T08:29:16.495Z,19.51
2023-05-20T08:31:44.959Z,19.35
2023-05-20T08:34:13.790Z,19.24
2023-05-20T08:36:42.432Z,19.10
2023-05-20T08:39:10.782Z,18.91
2023-05-20T08:41:39.817Z,18.95
2023-05-20T08:44:11.616Z,18.80
2023-05-20T08:46:41.481Z,18.77
2023-05-20T08:49:09.655Z,18.48
2023-05-20T08:51:38.843Z,18.62
2023-05-20T08:54:08.963Z,18.82
2023-05-20T08:56:37.008Z,18.75
2023-05-20T08:59:05.540Z,18.74
2023-05-20T09:01:37.096Z,18.78
2023-05-20T09:04:05.230Z,18.64
2023-05-20T09:06:46.109Z,18.83
2023-05-20T09:09:14.761Z,18.90
2023-05-20T09:11:43.270Z,18.85
2023-05-20T09:14:10.930Z,19.02
2023-05-20T09:16:41.530Z,19.07
2023-05-20T09:19:11.122Z,19.25
2023-05-20T09:21:41.499Z,19.44
2023-05-20T09:24:09.647Z,19.35
2023-05-20T09:26:37.765Z,19.43
2023-05-20T09:29:05.492Z,19.12
2023-05-20T09:31:34.104Z,19.33
2023-05-20T09:34:02.890Z,19.22
2023-05-20T09:36:35.227Z,19.34
2023-05-20T09:39:05.545Z,19.63
2023-05-20T09:41:45.162Z,20.06
2023-05-20T09:44:14.141Z,20.23
2023-05-20T09:46:44.166Z,20.04
2023-05-20T09:49:13.268Z,20.18
2023-05-20T09:51:42.113Z,20.42
2023-05-20T09:54:12.911Z,20.57
2023-05-20T09:56:42.262Z,20.52
2023-05-20T09:59:11.655Z,20.26
2023-05-20T10:01:39.300Z,20.17
2023-05-20T10:04:09.597Z,20.53
2023-05-20T10:06:43.472Z,20.78
2023-05-20T10:09:30.405Z,21.01
2023-05-20T10:12:29.856Z,21.04
2023-05-20T10:15:10.601Z,21.04
2023-05-20T10:18:07.330Z,21.13
2023-05-20T10:20:46.321Z,21.71
2023-05-20T10:23:24.123Z,21.72
2023-05-20T10:25:53.667Z,21.36
2023-05-20T10:28:33.071Z,21.72
2023-05-20T10:31:00.924Z,21.45
2023-05-20T10:33:29.663Z,21.26
2023-05-20T10:36:01.270Z,21.04
2023-05-20T10:38:29.138Z,21.39
2023-05-20T10:41:09.160Z,21.58
2023-05-20T10:43:37.527Z,21.12
2023-05-20T10:46:07.549Z,21.10
2023-05-20T10:48:43.186Z,21.62
2023-05-20T10:51:15.120Z,21.71
2023-05-20T10:53:46.953Z,21.92
2023-05-20T10:56:25.594Z,22.00
2023-05-20T10:58:54.997Z,22.19
2023-05-20T11:01:27.246Z,22.06
2023-05-20T11:03:57.464Z,22.03
2023-05-20T11:06:29.127Z,22.31
2023-05-20T11:09:07.333Z,21.89
2023-05-20T11:11:35.405Z,22.08
2023-05-20T11:14:03.195Z,21.82
2023-05-20T11:16:31.622Z,21.53
2023-05-20T11:18:59.483Z,21.53
2023-05-20T11:21:28.554Z,21.42
2023-05-20T11:23:56.184Z,21.52
2023-05-20T11:26:25.148Z,21.27
2023-05-20T11:28:53.330Z,21.32
2023-05-20T11:31:21.786Z,21.00
2023-05-20T11:33:50.917Z,20.65
2023-05-20T11:36:27.482Z,20.71
2023-05-20T11:38:58.285Z,20.48
2023-05-20T11:41:29.422Z,20.64
2023-05-20T11:44:01.311Z,20.64
2023-05-20T11:46:29.127Z,20.80
2023-05-20T11:48:58.018Z,20.54
2023-05-20T11:51:30.139Z,20.34
2023-05-20T11:54:02.876Z,20.31
2023-05-20T11:56:32.077Z,20.49
2023-05-20T11:59:01.180Z,20.47
2023-05-20T12:01:42.967Z,20.54
2023-05-20T12:04:12.044Z,20.41
2023-05-20T12:06:40.166Z,20.59
2023-05-20T12:09:08.744Z,20.56
2023-05-20T12:11:39.818Z,20.75
2023-05-20T12:14:08.248Z,20.86
2023-05-20T12:16:37.006Z,20.97
2023-05-20T12:19:04.971Z,21.09
2023-05-20T12:21:33.112Z,21.02
2023-05-20T12:24:01.164Z,20.77
2023-05-20T12:26:30.175Z,20.64
2023-05-20T12:28:58.138Z,20.54
2023-05-20T12:31:26.572Z,20.80
2023-05-20T12:33:54.158Z,20.97
2023-05-20T12:36:22.003Z,20.71
2023-05-20T12:38:49.515Z,20.91
2023-05-20T12:41:17.233Z,21.06
2023-05-20T12:43:44.793Z,21.15
2023-05-20T12:46:12.851Z,21.09
2023-05-20T12:48:42.711Z,21.55
2023-05-20T12:51:10.548Z,21.57
2023-05-20T12:53:38.439Z,21.29
2023-05-20T12:56:07.891Z,21.25
2023-05-20T12:58:36.071Z,21.24
2023-05-20T13:01:04.335Z,21.22
2023-05-20T13:03:32.303Z,21.18
2023-05-20T13:06:00.638Z,21.66
2023-05-20T13:08:28.790Z,21.45
2023-05-20T13:10:57.195Z,21.22
2023-05-20T13:13:24.782Z,21.41
2023-05-20T13:15:53.255Z,21.58
2023-05-20T13:18:21.510Z,21.80
2023-05-20T13:20:49.144Z,21.67
2023-05-20T13:23:16.732Z,22.01
2023-05-20T13:25:45.202Z,21.33
2023-05-20T13:28:16.646Z,21.66
2023-05-20T13:30:44.853Z,21.80
2023-05-20T13:33:12.945Z,21.80
2023-05-20T13:35:41.095Z,21.52
2023-05-20T13:38:10.460Z,21.64
2023-05-20T13:40:37.962Z,21.57
2023-05-20T13:43:05.580Z,21.53
2023-05-20T13:45:33.597Z,21.62
2023-05-20T13:48:01.761Z,21.49
2023-05-20T13:50:29.472Z,21.44
2023-05-20T13:52:57.532Z,21.51
2023-05-20T13:55:26.051Z,21.34
2023-05-20T13:57:54.402Z,21.61
2023-05-20T14:00:22.505Z,21.49
2023-05-20T14:02:50.555Z,21.73
2023-05-20T14:05:18.994Z,21.86
2023-05-20T14:07:46.603Z,22.01
2023-05-20T14:10:14.526Z,21.93
2023-05-20T14:12:48.049Z,22.31
2023-05-20T14:15:16.349Z,22.24
2023-05-20T14:17:44.253Z,21.96
2023-05-20T14:20:12.223Z,22.06
2023-05-20T14:22:40.229Z,22.18
2023-05-20T14:25:09.182Z,22.60
2023-05-20T14:27:36.735Z,23.08
2023-05-20T14:30:04.886Z,22.90
2023-05-20T14:32:32.698Z,22.75
2023-05-20T14:35:00.572Z,22.65
2023-05-20T14:37:28.279Z,22.23
2023-05-20T14:39:56.240Z,22.61
2023-05-20T14:42:24.206Z,22.61
2023-05-20T14:44:51.763Z,22.42
2023-05-20T14:47:22.275Z,22.05
2023-05-20T14:49:50.283Z,21.83
2023-05-20T14:52:19.259Z,21.74
2023-05-20T14:54:46.901Z,21.47
2023-05-20T14:57:16.097Z,21.20
2023-05-20T14:59:44.378Z,21.07
2023-05-20T15:02:15.587Z,21.08
2023-05-20T15:04:46.427Z,21.32
2023-05-20T15:07:15.234Z,21.08
2023-05-20T15:09:43.970Z,21.19
2023-05-20T15:12:12.092Z,21.45
2023-05-20T15:14:40.187Z,21.35
2023-05-20T15:17:08.580Z,21.36
2023-05-20T15:19:39.639Z,21.22
2023-05-20T15:22:08.586Z,20.79
2023-05-20T15:24:36.206Z,20.73
2023-05-20T15:27:04.334Z,20.66
2023-05-20T15:29:31.942Z,20.68
2023-05-20T15:31:59.571Z,20.75
2023-05-20T15:34:28.116Z,20.96
2023-05-20T15:36:56.108Z,21.00
2023-05-20T15:39:23.680Z,20.91
2023-05-20T15:41:52.378Z,20.65
2023-05-20T15:44:20.960Z,20.75
2023-05-20T15:46:49.339Z,20.97
2023-05-20T15:49:17.479Z,21.00
2023-05-20T15:51:52.163Z,20.67
2023-05-20T15:54:30.107Z,20.85
2023-05-20T15:56:58.137Z,20.85
2023-05-20T15:59:26.685Z,20.90
2023-05-20T16:01:54.255Z,20.62
2023-05-20T16:04:22.370Z,20.58
2023-05-20T16:06:50.083Z,20.69
2023-05-20T16:09:17.671Z,20.72
2023-05-20T16:11:45.913Z,20.80
2023-05-20T16:14:13.846Z,20.68
2023-05-20T16:16:42.003Z,20.90
2023-05-20T16:19:10.317Z,20.77
2023-05-20T16:21:38.195Z,20.69
2023-05-20T16:24:06.008Z,20.95
2023-05-20T16:26:34.190Z,20.71
2023-05-20T16:29:01.760Z,20.61
2023-05-20T16:31:29.968Z,20.72
2023-05-20T16:33:58.250Z,20.77
2023-05-20T16:36:25.952Z,20.66
2023-05-20T16:38:53.590Z,20.48
2023-05-20T16:41:22.919Z,20.62
2023-05-20T16:43:50.551Z,20.33
2023-05-20T16:46:18.302Z,20.51
2023-05-20T16:48:46.375Z,20.47
2023-05-20T16:51:14.254Z,20.29
2023-05-20T16:53:41.775Z,20.36
2023-05-20T16:56:09.445Z,20.20
2023-05-20T16:58:37.508Z,20.10
2023-05-20T17:01:05.241Z,20.33
2023-05-20T17:03:33.439Z,20.42
2023-05-20T17:06:01.854Z,20.46
2023-05-20T17:08:29.907Z,20.49
2023-05-20T17:10:59.755Z,20.52
2023-05-20T17:13:27.331Z,20.40
2023-05-20T17:15:55.501Z,20.27
2023-05-20T17:18:23.514Z,20.26
2023-05-20T17:20:51.748Z,20.19
2023-05-20T17:23:19.330Z,20.16
2023-05-20T17:25:47.334Z,20.15
2023-05-20T17:28:14.907Z,20.23
2023-05-20T17:30:42.891Z,20.12
2023-05-20T17:33:11.318Z,20.15
2023-05-20T17:35:39.077Z,20.32
2023-05-20T17:38:07.243Z,20.33
2023-05-20T17:40:36.061Z,20.11
2023-05-20T17:43:04.031Z,19.91
2023-05-20T17:45:31.726Z,19.79
2023-05-20T17:47:59.722Z,19.65
2023-05-20T17:50:27.472Z,19.50
2023-05-20T17:52:55.249Z,19.44
2023-05-20T17:55:23.431Z,19.58
2023-05-20T17:57:51.394Z,19.62
2023-05-20T18:00:21.512Z,19.55
2023-05-20T18:02:49.965Z,19.51
2023-05-20T18:05:18.206Z,19.60
2023-05-20T18:07:46.052Z,19.73
2023-05-20T18:10:14.455Z,19.73
2023-05-20T18:12:42.928Z,19.61
2023-05-20T18:15:10.706Z,19.55
2023-05-20T18:17:40.171Z,19.51
2023-05-20T18:20:09.781Z,19.56
2023-05-20T18:22:40.304Z,19.64
2023-05-20T18:25:09.120Z,19.47
2023-05-20T18:27:37.140Z,19.54
2023-05-20T18:30:05.498Z,19.50
2023-05-20T18:32:33.416Z,19.35
2023-05-20T18:35:01.586Z,19.50
2023-05-20T18:37:30.086Z,19.50
2023-05-20T18:39:58.875Z,19.41
2023-05-20T18:42:26.573Z,19.48
2023-05-20T18:44:54.354Z,19.34
2023-05-20T18:47:22.005Z,19.27
2023-05-20T18:49:50.047Z,19.45
2023-05-20T18:52:18.197Z,19.49
2023-05-20T18:54:46.411Z,19.37
2023-05-20T18:57:14.085Z,19.47
2023-05-20T18:59:42.066Z,19.38
2023-05-20T19:02:10.181Z,19.29
2023-05-20T19:04:38.213Z,19.31
2023-05-20T19:07:07.013Z,19.30
2023-05-20T19:09:35.118Z,19.34
2023-05-20T19:12:04.924Z,19.49
2023-05-20T19:14:32.992Z,19.42
2023-05-20T19:17:01.330Z,19.47
2023-05-20T19:19:29.589Z,19.37
2023-05-20T19:21:57.374Z,19.30
2023-05-20T19:24:25.358Z,19.41
2023-05-20T19:26:52.879Z,19.45
2023-05-20T19:29:20.577Z,19.35
2023-05-20T19:31:48.220Z,19.40
2023-05-20T19:34:15.931Z,19.45
2023-05-20T19:36:44.518Z,19.38
2023-05-20T19:39:12.149Z,19.25
2023-05-20T19:41:40.237Z,19.22
2023-05-20T19:44:08.836Z,19.22
2023-05-20T19:46:36.892Z,19.23
2023-05-20T19:49:04.705Z,19.34
2023-05-20T19:51:32.449Z,19.26
2023-05-20T19:54:00.721Z,18.87
2023-05-20T19:56:28.338Z,19.07
2023-05-20T19:58:57.627Z,19.09
2023-05-20T20:01:25.583Z,19.12
2023-05-20T20:03:53.980Z,19.09
2023-05-20T20:06:21.776Z,18.97
2023-05-20T20:08:49.786Z,18.97
2023-05-20T20:11:17.736Z,19.01
2023-05-20T20:13:46.476Z,19.00
2023-05-20T20:16:15.593Z,18.94
2023-05-20T20:18:43.379Z,19.04
2023-05-20T20:21:11.480Z,19.04
2023-05-20T20:23:39.098Z,19.04
2023-05-20T20:26:07.849Z,19.05
2023-05-20T20:28:35.519Z,19.01
2023-05-20T20:31:03.548Z,18.96
2023-05-20T20:33:31.958Z,18.90
2023-05-20T20:35:59.546Z,18.90
2023-05-20T20:38:27.087Z,18.98
2023-05-20T20:40:55.126Z,19.01
2023-05-20T20:43:22.965Z,18.98
2023-05-20T20:45:53.176Z,18.91
2023-05-20T20:48:26.598Z,18.97
2023-05-20T20:50:54.502Z,18.99
2023-05-20T20:53:22.585Z,19.09
2023-05-20T20:55:51.580Z,19.15
2023-05-20T20:58:20.132Z,19.17
2023-05-20T21:00:48.853Z,19.23
2023-05-20T21:03:18.511Z,19.11
2023-05-20T21:05:48.594Z,19.19
2023-05-20T21:08:16.645Z,19.08
2023-05-20T21:10:44.761Z,19.10
2023-05-20T21:13:12.368Z,19.11
2023-05-20T21:15:41.806Z,19.15
2023-05-20T21:18:09.972Z,19.17
2023-05-20T21:20:37.550Z,19.14
2023-05-20T21:23:05.298Z,19.10
2023-05-20T21:25:32.864Z,19.09
2023-05-20T21:28:00.565Z,19.21
2023-05-20T21:30:28.518Z,19.13
2023-05-20T21:32:56.145Z,19.04
2023-05-20T21:35:24.184Z,18.73
2023-05-20T21:37:52.244Z,18.67
2023-05-20T21:40:20.450Z,18.54
2023-05-20T21:42:50.701Z,18.65
2023-05-20T21:45:18.541Z,18.64
2023-05-20T21:47:47.117Z,18.64
2023-05-20T21:50:15.392Z,18.63
2023-05-20T21:52:43.283Z,18.68
2023-05-20T21:55:11.902Z,18.56
2023-05-20T21:57:39.582Z,18.55
2023-05-20T22:00:10.559Z,18.56
2023-05-20T22:02:38.422Z,18.67
2023-05-20T22:05:06.620Z,18.62
2023-05-20T22:07:34.595Z,18.56
2023-05-20T22:10:02.394Z,18.58
2023-05-20T22:12:29.990Z,18.64
2023-05-20T22:14:58.180Z,18.65
2023-05-20T22:17:26.320Z,18.50
2023-05-20T22:19:54.362Z,18.60
2023-05-20T22:22:22.543Z,18.58
2023-05-20T22:24:50.118Z,18.48
2023-05-20T22:27:18.125Z,18.42
2023-05-20T22:29:46.250Z,18.56
2023-05-20T22:32:14.203Z,18.47
2023-05-20T22:34:42.780Z,18.46
2023-05-20T22:37:11.780Z,18.54
2023-05-20T22:39:39.954Z,18.56
2023-05-20T22:42:07.547Z,18.43
2023-05-20T22:44:35.116Z,18.49
2023-05-20T22:47:03.150Z,18.42
2023-05-20T22:49:30.798Z,18.35
2023-05-20T22:51:59.347Z,18.42
2023-05-20T22:54:27.362Z,18.35
2023-05-20T22:56:59.139Z,18.38
2023-05-20T22:59:26.973Z,18.38
2023-05-20T23:01:55.118Z,18.44
2023-05-20T23:04:23.783Z,18.20
2023-05-20T23:06:53.807Z,18.37
2023-05-20T23:09:21.515Z,18.38
2023-05-20T23:11:49.057Z,18.38
2023-05-20T23:14:17.115Z,18.39
2023-05-20T23:16:44.769Z,18.20
2023-05-20T23:19:12.468Z,18.34
2023-05-20T23:21:40.716Z,18.31
2023-05-20T23:24:08.586Z,18.38
2023-05-20T23:26:37.825Z,18.31
2023-05-20T23:29:05.516Z,18.35
2023-05-20T23:31:33.953Z,18.34
2023-05-20T23:34:03.745Z,18.38
2023-05-20T23:36:34.582Z,18.33
2023-05-20T23:39:02.885Z,18.37
2023-05-20T23:41:30.728Z,18.50
2023-05-20T23:43:58.415Z,18.56
2023-05-20T23:46:26.475Z,18.44
2023-05-20T23:48:54.925Z,18.43
2023-05-20T23:51:22.956Z,18.41
2023-05-20T23:53:50.545Z,18.49
2023-05-20T23:56:18.262Z,18.33
2023-05-20T23:58:47.330Z,18.21
